Time,TemperatureF,DewpointF,PressureIn,WindDirection,WindDirectionDegrees,WindSpeedMPH,WindSpeedGustMPH,Humidity,HourlyPrecipIn,Conditions,Clouds,dailyrainin,SoftwareType,DateUTC
2013-02-01 00:00:00,50.1,38.4,30.15,South,169,0.0,0.0,64,0.00,,---,0.00,VWS V14.01,2013-02-01 05:00:00,
2013-02-01 00:01:00,49.9,38.6,30.15,South,169,0.0,0.0,65,0.00,,---,0.00,VWS V14.01,2013-02-01 05:01:00,
2013-02-01 00:06:00,49.9,38.6,30.15,South,175,0.0,0.0,65,0.00,,---,0.00,VWS V14.01,2013-02-01 05:06:00,
2013-02-01 00:11:00,49.6,38.7,30.15,South,175,0.0,0.0,66,0.00,,---,0.00,VWS V14.01,2013-02-01 05:11:00,
2013-02-01 00:16:00,49.5,39.0,30.15,South,174,0.0,0.0,67,0.00,,---,0.00,VWS V14.01,2013-02-01 05:16:00,
2013-02-01 00:21:00,49.5,39.0,30.15,South,174,0.0,0.0,67,0.00,,---,0.00,VWS V14.01,2013-02-01 05:21:00,
2013-02-01 00:26:00,49.5,39.0,30.15,SSE,154,0.0,0.0,67,0.00,,---,0.00,VWS V14.01,2013-02-01 05:26:00,
2013-02-01 00:30:00,49.5,39.0,30.15,SSE,154,0.0,0.0,67,0.00,,---,0.00,VWS V14.01,2013-02-01 05:30:00,
2013-02-01 00:31:00,49.5,39.0,30.15,North,356,0.0,0.0,67,0.00,,---,0.00,VWS V14.01,2013-02-01 05:31:00,
2013-02-01 00:36:00,49.4,38.9,30.15,South,171,0.0,0.0,67,0.00,,---,0.00,VWS V14.01,2013-02-01 05:36:00,
2013-02-01 00:41:00,49.4,38.9,30.16,North,357,0.0,0.0,67,0.00,,---,0.00,VWS V14.01,2013-02-01 05:41:00,
2013-02-01 00:46:00,49.4,38.9,30.16,North,359,0.0,0.0,67,0.00,,---,0.00,VWS V14.01,2013-02-01 05:46:00,
2013-02-01 00:51:00,49.4,38.9,30.16,NNW,347,0.0,0.0,67,0.00,,---,0.00,VWS V14.01,2013-02-01 05:51:00,
2013-02-01 00:56:00,49.4,39.3,30.15,South,174,0.0,0.0,68,0.00,,---,0.00,VWS V14.01,2013-02-01 05:56:00,
2013-02-01 01:00:00,49.4,39.3,30.15,South,174,0.0,0.0,68,0.00,,---,0.00,VWS V14.01,2013-02-01 06:00:00,
2013-02-01 01:01:00,49.2,39.1,30.15,South,169,0.0,0.0,68,0.00,,---,0.00,VWS V14.01,2013-02-01 06:01:00,
2013-02-01 01:06:00,49.2,39.5,30.15,SSE,167,0.0,0.0,69,0.00,,---,0.00,VWS V14.01,2013-02-01 06:06:00,
2013-02-01 01:11:00,48.8,38.7,30.15,SSE,162,0.0,0.0,68,0.00,,---,0.00,VWS V14.01,2013-02-01 06:11:00,
2013-02-01 01:16:00,48.6,39.3,30.15,SSE,160,0.0,0.0,70,0.00,,---,0.00,VWS V14.01,2013-02-01 06:16:00,
2013-02-01 01:21:00,48.6,39.6,30.15,South,169,0.0,0.0,71,0.00,,---,0.00,VWS V14.01,2013-02-01 06:21:00,
2013-02-01 01:26:00,48.5,39.5,30.15,South,171,0.0,0.0,71,0.00,,---,0.00,VWS V14.01,2013-02-01 06:26:00,
2013-02-01 01:30:00,48.5,39.5,30.15,South,171,0.0,0.0,71,0.00,,---,0.00,VWS V14.01,2013-02-01 06:30:00,
2013-02-01 01:31:00,48.2,38.9,30.15,South,171,0.0,0.0,70,0.00,,---,0.00,VWS V14.01,2013-02-01 06:31:00,
2013-02-01 01:36:00,47.9,38.6,30.15,SSE,168,0.0,0.0,70,0.00,,---,0.00,VWS V14.01,2013-02-01 06:36:00,
2013-02-01 01:41:00,47.7,38.4,30.15,South,169,0.0,0.0,70,0.00,,---,0.00,VWS V14.01,2013-02-01 06:41:00,
2013-02-01 01:46:00,47.6,38.3,30.15,SSE,164,0.0,0.0,70,0.00,,---,0.00,VWS V14.01,2013-02-01 06:46:00,
2013-02-01 01:51:00,47.4,38.1,30.15,SSE,164,0.0,0.0,70,0.00,,---,0.00,VWS V14.01,2013-02-01 06:51:00,
2013-02-01 01:56:00,47.4,38.1,30.15,South,169,0.0,0.0,70,0.00,,---,0.00,VWS V14.01,2013-02-01 06:56:00,
2013-02-01 02:00:00,47.4,38.1,30.15,South,169,0.0,0.0,70,0.00,,---,0.00,VWS V14.01,2013-02-01 07:00:00,
2013-02-01 02:01:00,47.4,38.5,30.15,South,169,0.0,0.0,71,0.00,,---,0.00,VWS V14.01,2013-02-01 07:01:00,
2013-02-01 02:06:00,47.4,38.5,30.15,South,171,0.0,0.0,71,0.00,,---,0.00,VWS V14.01,2013-02-01 07:06:00,
2013-02-01 02:11:00,47.3,38.4,30.15,South,171,0.0,0.0,71,0.00,,---,0.00,VWS V14.01,2013-02-01 07:11:00,
2013-02-01 02:16:00,47.3,38.4,30.15,South,172,0.0,0.0,71,0.00,,---,0.00,VWS V14.01,2013-02-01 07:16:00,
2013-02-01 02:21:00,47.1,38.5,30.15,South,171,0.0,0.0,72,0.00,,---,0.00,VWS V14.01,2013-02-01 07:21:00,
2013-02-01 02:26:00,47.0,38.5,30.15,South,172,0.0,0.0,72,0.00,,---,0.00,VWS V14.01,2013-02-01 07:26:00,
2013-02-01 02:30:00,47.0,38.5,30.15,South,172,0.0,0.0,72,0.00,,---,0.00,VWS V14.01,2013-02-01 07:30:00,
2013-02-01 02:31:00,47.0,38.5,30.15,South,171,0.0,0.0,72,0.00,,---,0.00,VWS V14.01,2013-02-01 07:31:00,
2013-02-01 02:36:00,46.8,38.6,30.15,South,169,0.0,0.0,73,0.00,,---,0.00,VWS V14.01,2013-02-01 07:36:00,
2013-02-01 02:41:00,46.8,38.6,30.15,South,172,0.0,0.0,73,0.00,,---,0.00,VWS V14.01,2013-02-01 07:41:00,
2013-02-01 02:46:00,46.8,38.6,30.15,South,172,0.0,0.0,73,0.00,,---,0.00,VWS V14.01,2013-02-01 07:46:00,
2013-02-01 02:51:00,46.7,38.5,30.15,South,172,0.0,0.0,73,0.00,,---,0.00,VWS V14.01,2013-02-01 07:51:00,
2013-02-01 02:56:00,46.7,38.5,30.15,South,174,0.0,0.0,73,0.00,,---,0.00,VWS V14.01,2013-02-01 07:56:00,
2013-02-01 03:00:00,46.7,38.5,30.15,South,174,0.0,0.0,73,0.00,,---,0.00,VWS V14.01,2013-02-01 08:00:00,
2013-02-01 03:01:00,46.7,38.5,30.15,South,172,0.0,0.0,73,0.00,,---,0.00,VWS V14.01,2013-02-01 08:01:00,
2013-02-01 03:06:00,46.8,39.0,30.15,SSE,161,0.0,0.0,74,0.00,,---,0.00,VWS V14.01,2013-02-01 08:06:00,
2013-02-01 03:11:00,47.0,39.2,30.15,SSE,162,0.0,0.0,74,0.00,,---,0.00,VWS V14.01,2013-02-01 08:11:00,
2013-02-01 03:16:00,47.0,39.5,30.15,SSE,162,0.0,0.0,75,0.00,,---,0.00,VWS V14.01,2013-02-01 08:16:00,
2013-02-01 03:21:00,47.1,39.6,30.15,SSE,164,0.0,0.0,75,0.00,,---,0.00,VWS V14.01,2013-02-01 08:21:00,
2013-02-01 03:26:00,47.3,39.5,30.15,South,169,0.0,0.0,74,0.00,,---,0.00,VWS V14.01,2013-02-01 08:26:00,
2013-02-01 03:30:00,47.3,39.5,30.15,South,169,0.0,0.0,74,0.00,,---,0.00,VWS V14.01,2013-02-01 08:30:00,
2013-02-01 03:31:00,47.3,39.8,30.15,South,174,0.0,0.0,75,0.00,,---,0.00,VWS V14.01,2013-02-01 08:31:00,
2013-02-01 03:36:00,47.3,39.8,30.15,South,174,0.0,0.0,75,0.00,,---,0.00,VWS V14.01,2013-02-01 08:36:00,
2013-02-01 03:41:00,47.1,39.9,30.15,South,172,0.0,0.0,76,0.00,,---,0.00,VWS V14.01,2013-02-01 08:41:00,
2013-02-01 03:46:00,47.0,39.8,30.15,SSE,161,0.0,0.0,76,0.00,,---,0.00,VWS V14.01,2013-02-01 08:46:00,
2013-02-01 03:51:00,47.0,40.2,30.15,SSE,162,0.0,0.0,77,0.00,,---,0.00,VWS V14.01,2013-02-01 08:51:00,
2013-02-01 03:56:00,46.8,40.0,30.16,SSE,160,0.0,0.0,77,0.00,,---,0.00,VWS V14.01,2013-02-01 08:56:00,
2013-02-01 04:00:00,46.8,40.0,30.16,SSE,161,0.0,0.0,77,0.00,,---,0.00,VWS V14.01,2013-02-01 09:00:00,
2013-02-01 04:01:00,46.7,40.2,30.16,South,171,0.0,0.0,78,0.00,,---,0.00,VWS V14.01,2013-02-01 09:01:00,
2013-02-01 04:06:00,46.4,39.9,30.16,South,174,0.0,0.0,78,0.00,,---,0.00,VWS V14.01,2013-02-01 09:06:00,
2013-02-01 04:11:00,46.2,40.1,30.16,South,171,0.0,0.0,79,0.00,,---,0.00,VWS V14.01,2013-02-01 09:11:00,
2013-02-01 04:16:00,46.0,39.5,30.16,SSE,165,0.0,0.0,78,0.00,,---,0.00,VWS V14.01,2013-02-01 09:16:00,
2013-02-01 04:21:00,45.8,39.7,30.16,SSE,165,0.0,0.0,79,0.00,,---,0.00,VWS V14.01,2013-02-01 09:21:00,
2013-02-01 04:26:00,46.0,40.2,30.16,SSE,158,0.0,0.0,80,0.00,,---,0.00,VWS V14.01,2013-02-01 09:26:00,
2013-02-01 04:30:00,46.0,40.2,30.16,SSE,157,0.0,0.0,80,0.00,,---,0.00,VWS V14.01,2013-02-01 09:30:00,
2013-02-01 04:31:00,45.7,39.2,30.16,SSE,167,0.0,0.0,78,0.00,,---,0.00,VWS V14.01,2013-02-01 09:31:00,
2013-02-01 04:36:00,45.5,39.0,30.16,SSE,158,0.0,0.0,78,0.00,,---,0.00,VWS V14.01,2013-02-01 09:36:00,
2013-02-01 04:41:00,45.8,39.7,30.16,SSE,160,0.0,0.0,79,0.00,,---,0.00,VWS V14.01,2013-02-01 09:41:00,
2013-02-01 04:46:00,46.0,40.2,30.16,SSE,155,0.0,0.0,80,0.00,,---,0.00,VWS V14.01,2013-02-01 09:46:00,
2013-02-01 04:51:00,46.0,39.9,30.16,SSE,164,0.0,0.0,79,0.00,,---,0.00,VWS V14.01,2013-02-01 09:51:00,
2013-02-01 04:56:00,45.8,39.7,30.16,South,174,0.0,0.0,79,0.00,,---,0.00,VWS V14.01,2013-02-01 09:56:00,
2013-02-01 05:00:00,45.8,39.7,30.16,SSE,158,0.0,0.0,79,0.00,,---,0.00,VWS V14.01,2013-02-01 10:00:00,
2013-02-01 05:01:00,45.5,38.7,30.16,South,179,0.0,0.0,77,0.00,,---,0.00,VWS V14.01,2013-02-01 10:01:00,
2013-02-01 05:06:00,45.4,38.3,30.16,SSE,162,0.0,0.0,76,0.00,,---,0.00,VWS V14.01,2013-02-01 10:06:00,
2013-02-01 05:11:00,45.4,38.6,30.16,SSE,168,0.0,0.0,77,0.00,,---,0.00,VWS V14.01,2013-02-01 10:11:00,
2013-02-01 05:16:00,45.5,38.4,30.16,South,172,0.0,0.0,76,0.00,,---,0.00,VWS V14.01,2013-02-01 10:16:00,
2013-02-01 05:21:00,45.7,38.6,30.16,South,171,0.0,0.0,76,0.00,,---,0.00,VWS V14.01,2013-02-01 10:21:00,
2013-02-01 05:26:00,45.5,38.4,30.17,SSE,158,0.0,0.0,76,0.00,,---,0.00,VWS V14.01,2013-02-01 10:26:00,
2013-02-01 05:30:00,45.1,38.0,30.19,South,172,0.0,0.0,76,0.00,,---,0.00,VWS V14.01,2013-02-01 10:30:00,
2013-02-01 05:31:00,45.4,38.3,30.17,South,172,0.0,0.0,76,0.00,,---,0.00,VWS V14.01,2013-02-01 10:31:00,
2013-02-01 05:36:00,45.4,38.3,30.17,North,356,0.0,0.0,76,0.00,,---,0.00,VWS V14.01,2013-02-01 10:36:00,
2013-02-01 05:41:00,45.4,38.3,30.17,South,169,0.0,0.0,76,0.00,,---,0.00,VWS V14.01,2013-02-01 10:41:00,
2013-02-01 05:46:00,45.4,38.0,30.17,North,356,0.0,0.0,75,0.00,,---,0.00,VWS V14.01,2013-02-01 10:46:00,
2013-02-01 05:51:00,45.4,38.0,30.17,SSE,164,0.0,0.0,75,0.00,,---,0.00,VWS V14.01,2013-02-01 10:51:00,
2013-02-01 05:56:00,45.4,38.0,30.17,SSE,168,0.0,0.0,75,0.00,,---,0.00,VWS V14.01,2013-02-01 10:56:00,
2013-02-01 06:00:00,44.6,37.5,30.20,South,179,0.0,0.0,76,0.00,,---,0.00,VWS V14.01,2013-02-01 11:00:00,
2013-02-01 06:01:00,45.4,38.6,30.17,SSE,167,0.0,0.0,77,0.00,,---,0.00,VWS V14.01,2013-02-01 11:01:00,
2013-02-01 06:06:00,45.4,38.6,30.17,South,171,0.0,0.0,77,0.00,,---,0.00,VWS V14.01,2013-02-01 11:06:00,
2013-02-01 06:11:00,45.1,38.3,30.18,South,178,0.0,0.0,77,0.00,,---,0.00,VWS V14.01,2013-02-01 11:11:00,
2013-02-01 06:16:00,44.8,37.7,30.18,North,357,0.0,0.0,76,0.00,,---,0.00,VWS V14.01,2013-02-01 11:16:00,
2013-02-01 06:21:00,44.9,37.8,30.18,South,171,0.0,0.0,76,0.00,,---,0.00,VWS V14.01,2013-02-01 11:21:00,
2013-02-01 06:26:00,45.1,38.0,30.19,South,174,0.0,0.0,76,0.00,,---,0.00,VWS V14.01,2013-02-01 11:26:00,
2013-02-01 06:30:00,44.6,36.5,30.21,South,176,0.0,0.0,73,0.00,,---,0.00,VWS V14.01,2013-02-01 11:30:00,
2013-02-01 06:31:00,45.1,38.3,30.19,SSE,167,0.0,0.0,77,0.00,,---,0.00,VWS V14.01,2013-02-01 11:31:00,
2013-02-01 06:36:00,44.9,38.1,30.19,South,174,0.0,0.0,77,0.00,,---,0.00,VWS V14.01,2013-02-01 11:36:00,
2013-02-01 06:41:00,44.6,37.8,30.19,SSE,165,0.0,0.0,77,0.00,,---,0.00,VWS V14.01,2013-02-01 11:41:00,
2013-02-01 06:46:00,44.6,37.8,30.19,SSE,161,0.0,0.0,77,0.00,,---,0.00,VWS V14.01,2013-02-01 11:46:00,
2013-02-01 06:51:00,44.8,38.0,30.19,South,169,0.0,0.0,77,0.00,,---,0.00,VWS V14.01,2013-02-01 11:51:00,
2013-02-01 06:56:00,44.6,37.5,30.20,South,175,0.0,0.0,76,0.00,,---,0.00,VWS V14.01,2013-02-01 11:56:00,
2013-02-01 07:00:00,46.7,36.3,30.22,SSE,161,0.0,0.0,67,0.00,,---,0.00,VWS V14.01,2013-02-01 12:00:00,
2013-02-01 07:01:00,44.6,37.5,30.20,South,172,0.0,0.0,76,0.00,,---,0.00,VWS V14.01,2013-02-01 12:01:00,
2013-02-01 07:06:00,44.6,37.5,30.20,SSE,167,0.0,0.0,76,0.00,,---,0.00,VWS V14.01,2013-02-01 12:06:00,
2013-02-01 07:11:00,44.6,37.5,30.21,SSE,165,0.0,0.0,76,0.00,,---,0.00,VWS V14.01,2013-02-01 12:11:00,
2013-02-01 07:16:00,44.8,37.0,30.21,SSE,164,0.0,0.0,74,0.00,,---,0.00,VWS V14.01,2013-02-01 12:16:00,
2013-02-01 07:21:00,44.6,36.5,30.21,SSE,167,0.0,0.0,73,0.00,,---,0.00,VWS V14.01,2013-02-01 12:21:00,
2013-02-01 07:26:00,44.6,36.5,30.21,South,179,0.0,0.0,73,0.00,,---,0.00,VWS V14.01,2013-02-01 12:26:00,
2013-02-01 07:30:00,49.2,35.9,30.23,SSE,167,0.0,0.0,60,0.00,,---,0.00,VWS V14.01,2013-02-01 12:30:00,
2013-02-01 07:31:00,45.2,37.4,30.21,South,169,0.0,0.0,74,0.00,,---,0.00,VWS V14.01,2013-02-01 12:31:00,
2013-02-01 07:36:00,45.7,37.5,30.21,SSE,167,0.0,0.0,73,0.00,,---,0.00,VWS V14.01,2013-02-01 12:36:00,
2013-02-01 07:41:00,45.7,36.8,30.22,SSE,160,0.0,0.0,71,0.00,,---,0.00,VWS V14.01,2013-02-01 12:41:00,
2013-02-01 07:46:00,46.0,36.8,30.22,SSE,161,0.0,0.0,70,0.00,,---,0.00,VWS V14.01,2013-02-01 12:46:00,
2013-02-01 07:51:00,46.4,36.8,30.22,SSE,162,0.0,0.0,69,0.00,,---,0.00,VWS V14.01,2013-02-01 12:51:00,
2013-02-01 07:56:00,46.7,36.3,30.22,SSE,167,0.0,0.0,67,0.00,,---,0.00,VWS V14.01,2013-02-01 12:56:00,
2013-02-01 08:00:00,50.8,34.8,30.24,SSE,164,0.0,0.0,54,0.00,,---,0.00,VWS V14.01,2013-02-01 13:00:00,
2013-02-01 08:01:00,47.1,36.7,30.22,SSE,158,0.0,0.0,67,0.00,,---,0.00,VWS V14.01,2013-02-01 13:01:00,
2013-02-01 08:06:00,47.6,36.0,30.22,South,175,0.0,0.0,64,0.00,,---,0.00,VWS V14.01,2013-02-01 13:06:00,
2013-02-01 08:11:00,47.9,35.9,30.22,SSE,167,0.0,0.0,63,0.00,,---,0.00,VWS V14.01,2013-02-01 13:11:00,
2013-02-01 08:16:00,48.3,35.5,30.22,South,169,0.0,0.0,61,0.00,,---,0.00,VWS V14.01,2013-02-01 13:16:00,
2013-02-01 08:21:00,48.8,36.0,30.22,SSE,168,0.0,0.0,61,0.00,,---,0.00,VWS V14.01,2013-02-01 13:21:00,
2013-02-01 08:26:00,49.1,35.8,30.23,SSE,164,0.0,0.0,60,0.00,,---,0.00,VWS V14.01,2013-02-01 13:26:00,
2013-02-01 08:30:00,53.3,35.7,30.25,SSE,168,0.0,0.0,51,0.00,,---,0.00,VWS V14.01,2013-02-01 13:30:00,
2013-02-01 08:31:00,49.5,35.8,30.23,SSE,157,0.0,0.0,59,0.00,,---,0.00,VWS V14.01,2013-02-01 13:31:00,
2013-02-01 08:36:00,49.8,35.2,30.23,SSE,164,0.0,0.0,57,0.00,,---,0.00,VWS V14.01,2013-02-01 13:36:00,
2013-02-01 08:41:00,50.1,35.9,30.24,SSE,167,0.0,0.0,58,0.00,,---,0.00,VWS V14.01,2013-02-01 13:41:00,
2013-02-01 08:46:00,50.4,35.3,30.24,South,178,0.0,0.0,56,0.00,,---,0.00,VWS V14.01,2013-02-01 13:46:00,
2013-02-01 08:51:00,50.7,34.7,30.24,SSE,154,0.0,0.0,54,0.00,,---,0.00,VWS V14.01,2013-02-01 13:51:00,
2013-02-01 08:56:00,50.8,34.8,30.24,South,175,0.0,0.0,54,0.00,,---,0.00,VWS V14.01,2013-02-01 13:56:00,
2013-02-01 09:00:00,55.1,36.3,30.24,SSE,165,0.0,0.0,49,0.00,,---,0.00,VWS V14.01,2013-02-01 14:00:00,
2013-02-01 09:01:00,51.3,34.8,30.24,SSE,155,0.0,0.0,53,0.00,,---,0.00,VWS V14.01,2013-02-01 14:01:00,
2013-02-01 09:06:00,51.7,35.1,30.24,South,171,0.0,0.0,53,0.00,,---,0.00,VWS V14.01,2013-02-01 14:06:00,
2013-02-01 09:11:00,52.2,35.6,30.24,SSE,155,0.0,0.0,53,0.00,,---,0.00,VWS V14.01,2013-02-01 14:11:00,
2013-02-01 09:16:00,52.5,34.9,30.24,SSE,160,0.0,0.0,51,0.00,,---,0.00,VWS V14.01,2013-02-01 14:16:00,
2013-02-01 09:21:00,52.6,35.0,30.24,South,171,0.0,0.0,51,0.00,,---,0.00,VWS V14.01,2013-02-01 14:21:00,
2013-02-01 09:26:00,53.3,35.7,30.25,North,356,0.0,0.0,51,0.00,,---,0.00,VWS V14.01,2013-02-01 14:26:00,
2013-02-01 09:30:00,57.3,37.8,30.25,SSE,167,0.0,0.0,48,0.00,,---,0.00,VWS V14.01,2013-02-01 14:30:00,
2013-02-01 09:31:00,53.3,34.7,30.25,South,189,0.0,0.0,49,0.00,,---,0.00,VWS V14.01,2013-02-01 14:31:00,
2013-02-01 09:36:00,53.8,36.1,30.25,SSE,157,0.0,0.0,51,0.00,,---,0.00,VWS V14.01,2013-02-01 14:36:00,
2013-02-01 09:41:00,54.2,35.5,30.24,North,356,0.0,0.0,49,0.00,,---,0.00,VWS V14.01,2013-02-01 14:41:00,
2013-02-01 09:46:00,54.5,36.3,30.24,South,169,0.0,0.0,50,0.00,,---,0.00,VWS V14.01,2013-02-01 14:46:00,
2013-02-01 09:51:00,55.0,35.7,30.24,SSE,167,0.0,0.0,48,0.00,,---,0.00,VWS V14.01,2013-02-01 14:51:00,
2013-02-01 09:56:00,55.1,36.3,30.24,SSE,152,0.0,0.0,49,0.00,,---,0.00,VWS V14.01,2013-02-01 14:56:00,
2013-02-01 10:00:00,59.5,40.9,30.25,South,178,0.0,0.0,50,0.00,,---,0.00,VWS V14.01,2013-02-01 15:00:00,
2013-02-01 10:01:00,55.6,36.2,30.24,SSE,162,0.0,0.0,48,0.00,,---,0.00,VWS V14.01,2013-02-01 15:01:00,
2013-02-01 10:06:00,55.4,36.6,30.24,South,175,0.0,0.0,49,0.00,,---,0.00,VWS V14.01,2013-02-01 15:06:00,
2013-02-01 10:11:00,55.9,37.5,30.25,SSE,161,0.0,0.0,50,0.00,,---,0.00,VWS V14.01,2013-02-01 15:11:00,
2013-02-01 10:16:00,56.7,37.8,30.25,South,169,0.0,0.0,49,0.00,,---,0.00,VWS V14.01,2013-02-01 15:16:00,
2013-02-01 10:21:00,57.2,37.2,30.25,North,356,0.0,0.0,47,0.00,,---,0.00,VWS V14.01,2013-02-01 15:21:00,
2013-02-01 10:26:00,57.3,37.8,30.25,South,176,0.0,0.0,48,0.00,,---,0.00,VWS V14.01,2013-02-01 15:26:00,
2013-02-01 10:30:00,60.9,40.6,30.25,SSE,168,0.0,0.0,47,0.00,,---,0.00,VWS V14.01,2013-02-01 15:30:00,
2013-02-01 10:31:00,57.5,38.5,30.25,SSE,158,0.0,0.0,49,0.00,,---,0.00,VWS V14.01,2013-02-01 15:31:00,
2013-02-01 10:36:00,58.3,38.7,30.25,SSE,161,0.0,0.0,48,0.00,,---,0.00,VWS V14.01,2013-02-01 15:36:00,
2013-02-01 10:41:00,58.4,38.3,30.25,South,171,0.0,0.0,47,0.00,,---,0.00,VWS V14.01,2013-02-01 15:41:00,
2013-02-01 10:46:00,58.7,39.6,30.25,SSE,162,0.0,0.0,49,0.00,,---,0.00,VWS V14.01,2013-02-01 15:46:00,
2013-02-01 10:51:00,59.3,40.2,30.25,South,176,0.0,0.0,49,0.00,,---,0.00,VWS V14.01,2013-02-01 15:51:00,
2013-02-01 10:56:00,59.3,40.7,30.25,South,186,0.0,0.0,50,0.00,,---,0.00,VWS V14.01,2013-02-01 15:56:00,
2013-02-01 11:00:00,62.1,41.7,30.25,SSE,157,0.0,0.0,47,0.00,,---,0.00,VWS V14.01,2013-02-01 16:00:00,
2013-02-01 11:01:00,59.3,40.2,30.25,South,172,0.0,0.0,49,0.00,,---,0.00,VWS V14.01,2013-02-01 16:01:00,
2013-02-01 11:06:00,59.5,39.3,30.25,South,179,0.0,0.0,47,0.00,,---,0.00,VWS V14.01,2013-02-01 16:06:00,
2013-02-01 11:11:00,59.5,39.8,30.25,SSE,160,0.0,0.0,48,0.00,,---,0.00,VWS V14.01,2013-02-01 16:11:00,
2013-02-01 11:16:00,60.1,40.4,30.25,SSE,165,0.0,0.0,48,0.00,,---,0.00,VWS V14.01,2013-02-01 16:16:00,
2013-02-01 11:21:00,60.4,40.1,30.25,SSE,161,0.0,0.0,47,0.00,,---,0.00,VWS V14.01,2013-02-01 16:21:00,
2013-02-01 11:26:00,60.9,40.5,30.25,South,181,0.0,0.0,47,0.00,,---,0.00,VWS V14.01,2013-02-01 16:26:00,
2013-02-01 11:30:00,63.4,40.5,30.23,SSE,167,0.0,0.0,43,0.00,,---,0.00,VWS V14.01,2013-02-01 16:30:00,
2013-02-01 11:31:00,61.0,39.5,30.25,SSE,161,0.0,0.0,45,0.00,,---,0.00,VWS V14.01,2013-02-01 16:31:00,
2013-02-01 11:36:00,62.0,41.6,30.25,South,178,0.0,0.0,47,0.00,,---,0.00,VWS V14.01,2013-02-01 16:36:00,
2013-02-01 11:41:00,61.3,40.9,30.25,SSE,167,0.0,0.0,47,0.00,,---,0.00,VWS V14.01,2013-02-01 16:41:00,
2013-02-01 11:46:00,61.2,40.8,30.25,South,171,0.0,0.0,47,0.00,,---,0.00,VWS V14.01,2013-02-01 16:46:00,
2013-02-01 11:51:00,61.5,41.7,30.25,South,179,0.0,0.0,48,0.00,,---,0.00,VWS V14.01,2013-02-01 16:51:00,
2013-02-01 11:56:00,62.1,41.1,30.25,South,185,0.0,0.0,46,0.00,,---,0.00,VWS V14.01,2013-02-01 16:56:00,
2013-02-01 12:00:00,64.3,40.7,30.22,SSE,165,0.0,0.0,42,0.00,,---,0.00,VWS V14.01,2013-02-01 17:00:00,
2013-02-01 12:01:00,62.7,42.2,30.25,South,186,0.0,0.0,47,0.00,,---,0.00,VWS V14.01,2013-02-01 17:01:00,
2013-02-01 12:06:00,62.6,42.1,30.25,South,184,0.0,0.0,47,0.00,,---,0.00,VWS V14.01,2013-02-01 17:06:00,
2013-02-01 12:11:00,62.4,41.4,30.24,South,184,0.0,0.0,46,0.00,,---,0.00,VWS V14.01,2013-02-01 17:11:00,
2013-02-01 12:16:00,62.7,41.6,30.24,South,175,0.0,0.0,46,0.00,,---,0.00,VWS V14.01,2013-02-01 17:16:00,
2013-02-01 12:21:00,63.1,40.9,30.24,South,175,0.0,0.0,44,0.00,,---,0.00,VWS V14.01,2013-02-01 17:21:00,
2013-02-01 12:26:00,63.4,39.9,30.23,SSE,164,0.0,0.0,42,0.00,,---,0.00,VWS V14.01,2013-02-01 17:26:00,
2013-02-01 12:30:00,65.5,39.9,30.20,South,174,0.0,0.0,39,0.00,,---,0.00,VWS V14.01,2013-02-01 17:30:00,
2013-02-01 12:31:00,63.5,40.6,30.23,SSE,167,0.0,0.0,43,0.00,,---,0.00,VWS V14.01,2013-02-01 17:31:00,
2013-02-01 12:36:00,63.9,41.6,30.23,South,175,0.0,0.0,44,0.00,,---,0.00,VWS V14.01,2013-02-01 17:36:00,
2013-02-01 12:41:00,63.5,40.6,30.23,SSE,158,0.0,0.0,43,0.00,,---,0.00,VWS V14.01,2013-02-01 17:41:00,
2013-02-01 12:46:00,64.3,41.9,30.23,SSE,165,0.0,0.0,44,0.00,,---,0.00,VWS V14.01,2013-02-01 17:46:00,
2013-02-01 12:51:00,64.7,41.1,30.23,South,181,0.0,0.0,42,0.00,,---,0.00,VWS V14.01,2013-02-01 17:51:00,
2013-02-01 12:56:00,64.3,41.3,30.22,South,181,0.0,0.0,43,0.00,,---,0.00,VWS V14.01,2013-02-01 17:56:00,
2013-02-01 13:00:00,66.9,39.8,30.18,SSW,195,0.0,0.0,37,0.00,,---,0.00,VWS V14.01,2013-02-01 18:00:00,
2013-02-01 13:01:00,65.2,41.5,30.22,South,185,0.0,0.0,42,0.00,,---,0.00,VWS V14.01,2013-02-01 18:01:00,
2013-02-01 13:06:00,65.3,41.0,30.22,South,172,0.0,0.0,41,0.00,,---,0.00,VWS V14.01,2013-02-01 18:06:00,
2013-02-01 13:11:00,65.3,39.7,30.21,South,188,0.0,0.0,39,0.00,,---,0.00,VWS V14.01,2013-02-01 18:11:00,
2013-02-01 13:16:00,65.2,40.3,30.21,South,184,0.0,0.0,40,0.00,,---,0.00,VWS V14.01,2013-02-01 18:16:00,
2013-02-01 13:21:00,65.5,38.6,30.21,South,185,0.0,0.0,37,0.00,,---,0.00,VWS V14.01,2013-02-01 18:21:00,
2013-02-01 13:26:00,65.3,39.1,30.20,South,171,0.0,0.0,38,0.00,,---,0.00,VWS V14.01,2013-02-01 18:26:00,
2013-02-01 13:30:00,68.4,39.7,30.17,SSW,192,0.0,0.0,35,0.00,,---,0.00,VWS V14.01,2013-02-01 18:30:00,
2013-02-01 13:31:00,66.0,41.0,30.20,South,188,0.0,0.0,40,0.00,,---,0.00,VWS V14.01,2013-02-01 18:31:00,
2013-02-01 13:36:00,66.0,41.0,30.20,South,174,0.0,0.0,40,0.00,,---,0.00,VWS V14.01,2013-02-01 18:36:00,
2013-02-01 13:41:00,66.6,39.5,30.19,South,181,0.0,0.0,37,0.00,,---,0.00,VWS V14.01,2013-02-01 18:41:00,
2013-02-01 13:46:00,66.8,40.4,30.19,South,184,0.0,0.0,38,0.00,,---,0.00,VWS V14.01,2013-02-01 18:46:00,
2013-02-01 13:51:00,66.8,39.7,30.19,SSE,165,0.0,0.0,37,0.00,,---,0.00,VWS V14.01,2013-02-01 18:51:00,
2013-02-01 13:56:00,66.9,39.8,30.18,South,188,0.0,0.0,37,0.00,,---,0.00,VWS V14.01,2013-02-01 18:56:00,
2013-02-01 14:00:00,68.6,38.4,30.16,South,181,0.0,0.0,33,0.00,,---,0.00,VWS V14.01,2013-02-01 19:00:00,
2013-02-01 14:01:00,67.1,40.0,30.18,South,179,0.0,0.0,37,0.00,,---,0.00,VWS V14.01,2013-02-01 19:01:00,
2013-02-01 14:06:00,67.3,38.7,30.18,South,182,0.0,0.0,35,0.00,,---,0.00,VWS V14.01,2013-02-01 19:06:00,
2013-02-01 14:11:00,67.3,38.7,30.18,South,184,0.0,0.0,35,0.00,,---,0.00,VWS V14.01,2013-02-01 19:11:00,
2013-02-01 14:16:00,67.8,38.4,30.18,South,172,0.0,0.0,34,0.00,,---,0.00,VWS V14.01,2013-02-01 19:16:00,
2013-02-01 14:21:00,67.9,38.5,30.18,SSE,150,0.0,0.0,34,0.00,,---,0.00,VWS V14.01,2013-02-01 19:21:00,
2013-02-01 14:26:00,68.4,39.7,30.17,South,171,0.0,0.0,35,0.00,,---,0.00,VWS V14.01,2013-02-01 19:26:00,
2013-02-01 14:30:00,68.4,36.6,30.16,SSW,198,0.0,0.0,31,0.00,,---,0.00,VWS V14.01,2013-02-01 19:30:00,
2013-02-01 14:31:00,68.3,38.9,30.17,SSE,157,0.0,0.0,34,0.00,,---,0.00,VWS V14.01,2013-02-01 19:31:00,
2013-02-01 14:36:00,68.1,38.7,30.17,South,176,0.0,0.0,34,0.00,,---,0.00,VWS V14.01,2013-02-01 19:36:00,
2013-02-01 14:41:00,68.3,38.9,30.17,SSE,167,0.0,0.0,34,0.00,,---,0.00,VWS V14.01,2013-02-01 19:41:00,
2013-02-01 14:46:00,68.4,37.4,30.17,SSE,150,0.0,0.0,32,0.00,,---,0.00,VWS V14.01,2013-02-01 19:46:00,
2013-02-01 14:51:00,68.4,36.6,30.17,South,175,0.0,0.0,31,0.00,,---,0.00,VWS V14.01,2013-02-01 19:51:00,
2013-02-01 14:56:00,68.4,37.4,30.16,South,181,0.0,0.0,32,0.00,,---,0.00,VWS V14.01,2013-02-01 19:56:00,
2013-02-01 15:00:00,69.3,36.6,30.16,SSE,158,0.0,0.0,30,0.00,,---,0.00,VWS V14.01,2013-02-01 20:00:00,
2013-02-01 15:01:00,68.6,36.8,30.16,South,185,0.0,0.0,31,0.00,,---,0.00,VWS V14.01,2013-02-01 20:01:00,
2013-02-01 15:06:00,68.8,37.0,30.16,SSE,164,0.0,0.0,31,0.00,,---,0.00,VWS V14.01,2013-02-01 20:06:00,
2013-02-01 15:11:00,68.8,36.1,30.16,South,182,0.0,0.0,30,0.00,,---,0.00,VWS V14.01,2013-02-01 20:11:00,
2013-02-01 15:16:00,68.4,36.6,30.16,South,181,0.0,0.0,31,0.00,,---,0.00,VWS V14.01,2013-02-01 20:16:00,
2013-02-01 15:21:00,68.9,37.8,30.16,SSE,161,0.0,0.0,32,0.00,,---,0.00,VWS V14.01,2013-02-01 20:21:00,
2013-02-01 15:26:00,68.6,36.0,30.16,South,171,0.0,0.0,30,0.00,,---,0.00,VWS V14.01,2013-02-01 20:26:00,
2013-02-01 15:30:00,68.9,37.0,30.16,SSW,198,0.0,0.0,31,0.00,,---,0.00,VWS V14.01,2013-02-01 20:30:00,
2013-02-01 15:31:00,68.6,36.8,30.16,SSE,165,0.0,0.0,31,0.00,,---,0.00,VWS V14.01,2013-02-01 20:31:00,
2013-02-01 15:36:00,68.9,36.2,30.16,South,172,0.0,0.0,30,0.00,,---,0.00,VWS V14.01,2013-02-01 20:36:00,
2013-02-01 15:41:00,69.1,38.0,30.16,South,181,0.0,0.0,32,0.00,,---,0.00,VWS V14.01,2013-02-01 20:41:00,
2013-02-01 15:46:00,69.1,36.4,30.16,SSE,161,0.0,0.0,30,0.00,,---,0.00,VWS V14.01,2013-02-01 20:46:00,
2013-02-01 15:51:00,69.3,36.6,30.16,South,185,0.0,0.0,30,0.00,,---,0.00,VWS V14.01,2013-02-01 20:51:00,
2013-02-01 15:56:00,69.3,37.4,30.16,SSE,154,0.0,0.0,31,0.00,,---,0.00,VWS V14.01,2013-02-01 20:56:00,
2013-02-01 16:00:00,68.8,34.4,30.16,South,181,0.0,0.0,28,0.00,,---,0.00,VWS V14.01,2013-02-01 21:00:00,
2013-02-01 16:01:00,69.1,36.4,30.16,South,169,0.0,0.0,30,0.00,,---,0.00,VWS V14.01,2013-02-01 21:01:00,
2013-02-01 16:06:00,69.1,34.7,30.16,SSE,167,0.0,0.0,28,0.00,,---,0.00,VWS V14.01,2013-02-01 21:06:00,
2013-02-01 16:11:00,69.1,35.5,30.16,South,174,0.0,0.0,29,0.00,,---,0.00,VWS V14.01,2013-02-01 21:11:00,
2013-02-01 16:16:00,68.9,36.2,30.16,South,178,0.0,0.0,30,0.00,,---,0.00,VWS V14.01,2013-02-01 21:16:00,
2013-02-01 16:21:00,68.9,37.0,30.16,South,191,0.0,0.0,31,0.00,,---,0.00,VWS V14.01,2013-02-01 21:21:00,
2013-02-01 16:26:00,68.9,37.0,30.16,SSE,165,0.0,0.0,31,0.00,,---,0.00,VWS V14.01,2013-02-01 21:26:00,
2013-02-01 16:30:00,68.1,32.9,30.17,South,178,0.0,0.0,27,0.00,,---,0.00,VWS V14.01,2013-02-01 21:30:00,
2013-02-01 16:31:00,68.9,35.4,30.16,South,182,0.0,0.0,29,0.00,,---,0.00,VWS V14.01,2013-02-01 21:31:00,
2013-02-01 16:36:00,68.9,35.4,30.16,South,188,0.0,0.0,29,0.00,,---,0.00,VWS V14.01,2013-02-01 21:36:00,
2013-02-01 16:41:00,68.9,36.2,30.16,South,178,0.0,0.0,30,0.00,,---,0.00,VWS V14.01,2013-02-01 21:41:00,
2013-02-01 16:46:00,68.9,36.2,30.16,SSE,162,0.0,0.0,30,0.00,,---,0.00,VWS V14.01,2013-02-01 21:46:00,
2013-02-01 16:51:00,68.9,34.5,30.16,SSE,167,0.0,0.0,28,0.00,,---,0.00,VWS V14.01,2013-02-01 21:51:00,
2013-02-01 16:56:00,68.9,35.4,30.16,South,189,0.0,0.0,29,0.00,,---,0.00,VWS V14.01,2013-02-01 21:56:00,
2013-02-01 17:00:00,67.1,32.9,30.17,SE,133,0.0,0.0,28,0.00,,---,0.00,VWS V14.01,2013-02-01 22:00:00,
2013-02-01 17:01:00,68.8,34.4,30.16,South,171,0.0,0.0,28,0.00,,---,0.00,VWS V14.01,2013-02-01 22:01:00,
2013-02-01 17:06:00,68.6,34.2,30.16,SSE,162,0.0,0.0,28,0.00,,---,0.00,VWS V14.01,2013-02-01 22:06:00,
2013-02-01 17:11:00,68.4,34.0,30.17,SSE,162,0.0,0.0,28,0.00,,---,0.00,VWS V14.01,2013-02-01 22:11:00,
2013-02-01 17:16:00,68.3,33.1,30.17,South,184,0.0,0.0,27,0.00,,---,0.00,VWS V14.01,2013-02-01 22:16:00,
2013-02-01 17:21:00,68.3,34.8,30.17,WNW,302,0.0,0.0,29,0.00,,---,0.00,VWS V14.01,2013-02-01 22:21:00,
2013-02-01 17:26:00,68.1,33.8,30.17,South,174,0.0,0.0,28,0.00,,---,0.00,VWS V14.01,2013-02-01 22:26:00,
2013-02-01 17:30:00,65.6,35.0,30.17,SE,130,0.0,0.0,32,0.00,,---,0.00,VWS V14.01,2013-02-01 22:30:00,
2013-02-01 17:31:00,67.9,33.6,30.17,SSE,167,0.0,0.0,28,0.00,,---,0.00,VWS V14.01,2013-02-01 22:31:00,
2013-02-01 17:36:00,67.8,33.5,30.17,East,97,0.0,0.0,28,0.00,,---,0.00,VWS V14.01,2013-02-01 22:36:00,
2013-02-01 17:41:00,67.6,34.2,30.17,East,95,0.0,0.0,29,0.00,,---,0.00,VWS V14.01,2013-02-01 22:41:00,
2013-02-01 17:46:00,67.4,32.3,30.17,SE,128,0.0,0.0,27,0.00,,---,0.00,VWS V14.01,2013-02-01 22:46:00,
2013-02-01 17:51:00,67.3,33.1,30.17,SE,136,0.0,0.0,28,0.00,,---,0.00,VWS V14.01,2013-02-01 22:51:00,
2013-02-01 17:56:00,67.1,32.0,30.17,SE,137,0.0,0.0,27,0.00,,---,0.00,VWS V14.01,2013-02-01 22:56:00,
2013-02-01 18:00:00,62.9,33.4,30.18,ESE,113,0.0,0.0,33,0.00,,---,0.00,VWS V14.01,2013-02-01 23:00:00,
2013-02-01 18:01:00,66.9,32.8,30.17,SE,141,0.0,0.0,28,0.00,,---,0.00,VWS V14.01,2013-02-01 23:01:00,
2013-02-01 18:06:00,66.6,33.4,30.17,ESE,116,0.0,0.0,29,0.00,,---,0.00,VWS V14.01,2013-02-01 23:06:00,
2013-02-01 18:11:00,66.1,34.6,30.17,SE,126,0.0,0.0,31,0.00,,---,0.00,VWS V14.01,2013-02-01 23:11:00,
2013-02-01 18:16:00,65.8,35.2,30.17,SE,141,0.0,0.0,32,0.00,,---,0.00,VWS V14.01,2013-02-01 23:16:00,
2013-02-01 18:21:00,65.6,35.8,30.17,ESE,109,0.0,0.0,33,0.00,,---,0.00,VWS V14.01,2013-02-01 23:21:00,
2013-02-01 18:26:00,65.6,34.2,30.17,SSE,147,0.0,0.0,31,0.00,,---,0.00,VWS V14.01,2013-02-01 23:26:00,
2013-02-01 18:30:00,61.6,35.1,30.18,ESE,114,0.0,0.0,37,0.00,,---,0.00,VWS V14.01,2013-02-01 23:30:00,
2013-02-01 18:31:00,65.5,34.9,30.17,ESE,120,0.0,0.0,32,0.00,,---,0.00,VWS V14.01,2013-02-01 23:31:00,
2013-02-01 18:36:00,65.2,36.2,30.17,ESE,112,0.0,0.0,34,0.00,,---,0.00,VWS V14.01,2013-02-01 23:36:00,
2013-02-01 18:41:00,64.7,37.8,30.18,ESE,119,0.0,0.0,37,0.00,,---,0.00,VWS V14.01,2013-02-01 23:41:00,
2013-02-01 18:46:00,64.0,37.2,30.18,ESE,106,0.0,0.0,37,0.00,,---,0.00,VWS V14.01,2013-02-01 23:46:00,
2013-02-01 18:51:00,63.4,33.8,30.18,SE,127,0.0,0.0,33,0.00,,---,0.00,VWS V14.01,2013-02-01 23:51:00,
2013-02-01 18:56:00,63.1,32.8,30.18,ESE,114,0.0,0.0,32,0.00,,---,0.00,VWS V14.01,2013-02-01 23:56:00,
2013-02-01 19:00:00,60.9,33.8,30.18,ESE,106,0.0,0.0,36,0.00,,---,0.00,VWS V14.01,2013-02-02 00:00:00,
2013-02-01 19:01:00,62.4,32.9,30.18,ESE,109,0.0,0.0,33,0.00,,---,0.00,VWS V14.01,2013-02-02 00:01:00,
2013-02-01 19:06:00,62.3,33.6,30.18,ESE,110,0.0,0.0,34,0.00,,---,0.00,VWS V14.01,2013-02-02 00:06:00,
2013-02-01 19:11:00,62.1,33.4,30.18,ESE,114,0.0,0.0,34,0.00,,---,0.00,VWS V14.01,2013-02-02 00:11:00,
2013-02-01 19:16:00,62.0,34.1,30.18,ESE,114,0.0,0.0,35,0.00,,---,0.00,VWS V14.01,2013-02-02 00:16:00,
2013-02-01 19:21:00,61.6,33.7,30.18,SE,126,0.0,0.0,35,0.00,,---,0.00,VWS V14.01,2013-02-02 00:21:00,
2013-02-01 19:26:00,61.6,34.4,30.18,ESE,119,0.0,0.0,36,0.00,,---,0.00,VWS V14.01,2013-02-02 00:26:00,
2013-02-01 19:30:00,59.8,32.1,30.18,ESE,123,0.0,0.0,35,0.00,,---,0.00,VWS V14.01,2013-02-02 00:30:00,
2013-02-01 19:31:00,61.3,34.8,30.18,ESE,107,0.0,0.0,37,0.00,,---,0.00,VWS V14.01,2013-02-02 00:31:00,
2013-02-01 19:36:00,61.3,35.5,30.18,ESE,114,0.0,0.0,38,0.00,,---,0.00,VWS V14.01,2013-02-02 00:36:00,
2013-02-01 19:41:00,61.0,34.6,30.18,ESE,119,0.0,0.0,37,0.00,,---,0.00,VWS V14.01,2013-02-02 00:41:00,
2013-02-01 19:46:00,61.0,34.6,30.18,ESE,110,0.0,0.0,37,0.00,,---,0.00,VWS V14.01,2013-02-02 00:46:00,
2013-02-01 19:51:00,61.0,34.6,30.18,ESE,112,0.0,0.0,37,0.00,,---,0.00,VWS V14.01,2013-02-02 00:51:00,
2013-02-01 19:56:00,60.9,33.8,30.18,ESE,116,0.0,0.0,36,0.00,,---,0.00,VWS V14.01,2013-02-02 00:56:00,
2013-02-01 20:00:00,59.6,34.0,30.18,ESE,117,0.0,0.0,38,0.00,,---,0.00,VWS V14.01,2013-02-02 01:00:00,
2013-02-01 20:01:00,60.7,32.9,30.18,ESE,117,0.0,0.0,35,0.00,,---,0.00,VWS V14.01,2013-02-02 01:01:00,
2013-02-01 20:06:00,60.5,32.0,30.18,ESE,117,0.0,0.0,34,0.00,,---,0.00,VWS V14.01,2013-02-02 01:06:00,
2013-02-01 20:11:00,60.2,31.8,30.18,ESE,123,0.0,0.0,34,0.00,,---,0.00,VWS V14.01,2013-02-02 01:11:00,
2013-02-01 20:16:00,60.1,31.7,30.18,ESE,123,0.0,0.0,34,0.00,,---,0.00,VWS V14.01,2013-02-02 01:16:00,
2013-02-01 20:21:00,59.9,31.5,30.18,ESE,113,0.0,0.0,34,0.00,,---,0.00,VWS V14.01,2013-02-02 01:21:00,
2013-02-01 20:26:00,59.9,32.2,30.18,SE,126,0.0,0.0,35,0.00,,---,0.00,VWS V14.01,2013-02-02 01:26:00,
2013-02-01 20:30:00,59.3,34.4,30.19,ESE,121,0.0,0.0,39,0.00,,---,0.00,VWS V14.01,2013-02-02 01:30:00,
2013-02-01 20:31:00,59.6,32.6,30.18,ESE,121,0.0,0.0,36,0.00,,---,0.00,VWS V14.01,2013-02-02 01:31:00,
2013-02-01 20:36:00,59.6,33.3,30.18,ESE,120,0.0,0.0,37,0.00,,---,0.00,VWS V14.01,2013-02-02 01:36:00,
2013-02-01 20:41:00,59.5,34.5,30.19,ESE,114,0.0,0.0,39,0.00,,---,0.00,VWS V14.01,2013-02-02 01:41:00,
2013-02-01 20:46:00,59.6,33.3,30.19,ESE,123,0.0,0.0,37,0.00,,---,0.00,VWS V14.01,2013-02-02 01:46:00,
2013-02-01 20:51:00,59.6,34.0,30.19,ESE,121,0.0,0.0,38,0.00,,---,0.00,VWS V14.01,2013-02-02 01:51:00,
2013-02-01 20:56:00,59.6,34.0,30.18,ESE,121,0.0,0.0,38,0.00,,---,0.00,VWS V14.01,2013-02-02 01:56:00,
2013-02-01 21:00:00,59.0,34.1,30.19,ESE,113,0.0,0.0,39,0.00,,---,0.00,VWS V14.01,2013-02-02 02:00:00,
2013-02-01 21:01:00,59.5,33.9,30.18,ESE,117,0.0,0.0,38,0.00,,---,0.00,VWS V14.01,2013-02-02 02:01:00,
2013-02-01 21:06:00,59.5,33.9,30.18,ESE,110,0.0,0.0,38,0.00,,---,0.00,VWS V14.01,2013-02-02 02:06:00,
2013-02-01 21:11:00,59.3,34.4,30.19,SE,131,0.0,0.0,39,0.00,,---,0.00,VWS V14.01,2013-02-02 02:11:00,
2013-02-01 21:16:00,59.5,35.2,30.19,ESE,117,0.0,0.0,40,0.00,,---,0.00,VWS V14.01,2013-02-02 02:16:00,
2013-02-01 21:21:00,59.3,35.0,30.19,ESE,119,0.0,0.0,40,0.00,,---,0.00,VWS V14.01,2013-02-02 02:21:00,
2013-02-01 21:26:00,59.3,34.4,30.19,ESE,113,0.0,0.0,39,0.00,,---,0.00,VWS V14.01,2013-02-02 02:26:00,
2013-02-01 21:30:00,58.3,35.3,30.20,SE,140,0.0,0.0,42,0.00,,---,0.00,VWS V14.01,2013-02-02 02:30:00,
2013-02-01 21:31:00,59.5,33.9,30.19,ESE,114,0.0,0.0,38,0.00,,---,0.00,VWS V14.01,2013-02-02 02:31:00,
2013-02-01 21:36:00,59.5,33.9,30.19,ESE,120,0.0,0.0,38,0.00,,---,0.00,VWS V14.01,2013-02-02 02:36:00,
2013-02-01 21:41:00,59.5,33.9,30.19,ESE,114,0.0,0.0,38,0.00,,---,0.00,VWS V14.01,2013-02-02 02:41:00,
2013-02-01 21:46:00,59.3,34.4,30.19,SE,131,0.0,0.0,39,0.00,,---,0.00,VWS V14.01,2013-02-02 02:46:00,
2013-02-01 21:51:00,59.2,33.6,30.19,ESE,107,0.0,0.0,38,0.00,,---,0.00,VWS V14.01,2013-02-02 02:51:00,
2013-02-01 21:56:00,59.0,33.5,30.19,ESE,120,0.0,0.0,38,0.00,,---,0.00,VWS V14.01,2013-02-02 02:56:00,
2013-02-01 22:00:00,57.8,36.6,30.20,SE,126,0.0,0.0,45,0.00,,---,0.00,VWS V14.01,2013-02-02 03:00:00,
2013-02-01 22:01:00,59.0,34.7,30.19,ESE,113,0.0,0.0,40,0.00,,---,0.00,VWS V14.01,2013-02-02 03:01:00,
2013-02-01 22:06:00,58.7,35.1,30.19,ESE,119,0.0,0.0,41,0.00,,---,0.00,VWS V14.01,2013-02-02 03:06:00,
2013-02-01 22:11:00,58.9,35.9,30.19,ESE,123,0.0,0.0,42,0.00,,---,0.00,VWS V14.01,2013-02-02 03:11:00,
2013-02-01 22:16:00,58.6,36.2,30.19,ESE,117,0.0,0.0,43,0.00,,---,0.00,VWS V14.01,2013-02-02 03:16:00,
2013-02-01 22:21:00,58.4,36.0,30.19,SE,130,0.0,0.0,43,0.00,,---,0.00,VWS V14.01,2013-02-02 03:21:00,
2013-02-01 22:26:00,58.3,35.3,30.20,SE,127,0.0,0.0,42,0.00,,---,0.00,VWS V14.01,2013-02-02 03:26:00,
2013-02-01 22:30:00,56.9,39.0,30.20,SE,134,0.0,0.0,51,0.00,,---,0.00,VWS V14.01,2013-02-02 03:30:00,
2013-02-01 22:31:00,58.3,33.5,30.20,SE,127,0.0,0.0,39,0.00,,---,0.00,VWS V14.01,2013-02-02 03:31:00,
2013-02-01 22:36:00,58.4,34.2,30.20,SE,126,0.0,0.0,40,0.00,,---,0.00,VWS V14.01,2013-02-02 03:36:00,
2013-02-01 22:41:00,58.1,34.5,30.20,SE,126,0.0,0.0,41,0.00,,---,0.00,VWS V14.01,2013-02-02 03:41:00,
2013-02-01 22:46:00,58.0,35.7,30.20,SE,126,0.0,0.0,43,0.00,,---,0.00,VWS V14.01,2013-02-02 03:46:00,
2013-02-01 22:51:00,58.0,35.7,30.20,ESE,121,0.0,0.0,43,0.00,,---,0.00,VWS V14.01,2013-02-02 03:51:00,
2013-02-01 22:56:00,57.8,36.6,30.20,SE,128,0.0,0.0,45,0.00,,---,0.00,VWS V14.01,2013-02-02 03:56:00,
2013-02-01 23:00:00,55.1,39.7,30.20,SE,140,0.0,0.0,56,0.00,,---,0.00,VWS V14.01,2013-02-02 04:00:00,
2013-02-01 23:01:00,57.5,36.9,30.20,SE,134,0.0,0.0,46,0.00,,---,0.00,VWS V14.01,2013-02-02 04:01:00,
2013-02-01 23:06:00,57.2,37.2,30.20,SE,131,0.0,0.0,47,0.00,,---,0.00,VWS V14.01,2013-02-02 04:06:00,
2013-02-01 23:11:00,57.0,37.5,30.20,SE,137,0.0,0.0,48,0.00,,---,0.00,VWS V14.01,2013-02-02 04:11:00,
2013-02-01 23:16:00,56.9,38.0,30.20,SE,136,0.0,0.0,49,0.00,,---,0.00,VWS V14.01,2013-02-02 04:16:00,
2013-02-01 23:21:00,57.0,38.6,30.20,SE,136,0.0,0.0,50,0.00,,---,0.00,VWS V14.01,2013-02-02 04:21:00,
2013-02-01 23:26:00,56.9,38.5,30.20,SE,133,0.0,0.0,50,0.00,,---,0.00,VWS V14.01,2013-02-02 04:26:00,
2013-02-01 23:30:00,52.9,40.7,30.19,SE,141,0.0,0.0,63,0.00,,---,0.00,VWS V14.01,2013-02-02 04:30:00,
2013-02-01 23:31:00,56.7,39.3,30.20,SE,137,0.0,0.0,52,0.00,,---,0.00,VWS V14.01,2013-02-02 04:31:00,
2013-02-01 23:36:00,56.5,39.6,30.20,SE,138,0.0,0.0,53,0.00,,---,0.00,VWS V14.01,2013-02-02 04:36:00,
2013-02-01 23:41:00,56.2,39.3,30.20,SE,141,0.0,0.0,53,0.00,,---,0.00,VWS V14.01,2013-02-02 04:41:00,
2013-02-01 23:46:00,55.9,39.5,30.20,SE,140,0.0,0.0,54,0.00,,---,0.00,VWS V14.01,2013-02-02 04:46:00,
2013-02-01 23:51:00,55.4,39.5,30.20,SE,140,0.0,0.0,55,0.00,,---,0.00,VWS V14.01,2013-02-02 04:51:00,
2013-02-01 23:56:00,55.3,39.9,30.20,SE,140,0.0,0.0,56,0.00,,---,0.00,VWS V14.01,2013-02-02 04:56:00,